sensor_id;sensor_type;location;lat;lon;timestamp;pressure;altitude;pressure_sealevel;temperature;humidity
62031;BME280;62035;52.094;5.112;2023-06-04T00:01:55;102330.09;;;14.14;100.00
62031;BME280;62035;52.094;5.112;2023-06-04T00:04:24;102325.06;;;14.30;100.00
62031;BME280;62035;52.094;5.112;2023-06-04T00:06:52;102328.44;;;14.22;100.00
62031;BME280;62035;52.094;5.112;2023-06-04T00:09:20;102323.78;;;14.24;100.00
62031;BME280;62035;52.094;5.112;2023-06-04T00:11:49;102330.19;;;14.02;100.00
62031;BME280;62035;52.094;5.112;2023-06-04T00:14:18;102328.50;;;14.01;100.00
62031;BME280;62035;52.094;5.112;2023-06-04T00:16:46;102322.19;;;14.12;100.00
62031;BME280;62035;52.094;5.112;2023-06-04T00:19:14;102331.88;;;14.03;100.00
62031;BME280;62035;52.094;5.112;2023-06-04T00:21:41;102327.16;;;14.17;100.00
62031;BME280;62035;52.094;5.112;2023-06-04T00:24:09;102313.59;;;14.09;100.00
62031;BME280;62035;52.094;5.112;2023-06-04T00:26:38;102323.13;;;14.01;100.00
62031;BME280;62035;52.094;5.112;2023-06-04T00:29:05;102321.59;;;13.99;100.00
62031;BME280;62035;52.094;5.112;2023-06-04T00:31:34;102316.53;;;14.06;100.00
62031;BME280;62035;52.094;5.112;2023-06-04T00:34:03;102320.00;;;13.87;100.00
62031;BME280;62035;52.094;5.112;2023-06-04T00:36:31;102329.06;;;13.95;100.00
62031;BME280;62035;52.094;5.112;2023-06-04T00:38:58;102320.50;;;14.11;100.00
62031;BME280;62035;52.094;5.112;2023-06-04T00:41:26;102328.44;;;13.82;100.00
62031;BME280;62035;52.094;5.112;2023-06-04T00:43:54;102320.41;;;13.82;100.00
62031;BME280;62035;52.094;5.112;2023-06-04T00:46:23;102317.22;;;13.67;100.00
62031;BME280;62035;52.094;5.112;2023-06-04T00:48:54;102322.09;;;13.83;100.00
62031;BME280;62035;52.094;5.112;2023-06-04T00:51:22;102326.19;;;13.87;100.00
62031;BME280;62035;52.094;5.112;2023-06-04T00:53:51;102325.16;;;13.79;100.00
62031;BME280;62035;52.094;5.112;2023-06-04T00:56:19;102319.50;;;13.72;100.00
62031;BME280;62035;52.094;5.112;2023-06-04T00:58:47;102315.78;;;13.63;100.00
62031;BME280;62035;52.094;5.112;2023-06-04T01:01:20;102318.72;;;13.60;100.00
62031;BME280;62035;52.094;5.112;2023-06-04T01:03:55;102320.03;;;13.66;100.00
62031;BME280;62035;52.094;5.112;2023-06-04T01:06:32;102326.03;;;13.79;100.00
62031;BME280;62035;52.094;5.112;2023-06-04T01:09:05;102320.84;;;13.57;100.00
62031;BME280;62035;52.094;5.112;2023-06-04T01:11:34;102323.69;;;13.65;100.00
62031;BME280;62035;52.094;5.112;2023-06-04T01:14:03;102324.31;;;13.48;100.00
62031;BME280;62035;52.094;5.112;2023-06-04T01:16:36;102319.28;;;13.54;100.00
62031;BME280;62035;52.094;5.112;2023-06-04T01:19:26;102319.75;;;13.39;100.00
62031;BME280;62035;52.094;5.112;2023-06-04T01:22:11;102320.22;;;13.44;100.00
62031;BME280;62035;52.094;5.112;2023-06-04T01:24:53;102313.69;;;13.37;100.00
62031;BME280;62035;52.094;5.112;2023-06-04T01:27:27;102324.84;;;13.42;100.00
62031;BME280;62035;52.094;5.112;2023-06-04T01:29:58;102325.88;;;13.50;100.00
62031;BME280;62035;52.094;5.112;2023-06-04T01:32:26;102332.94;;;13.30;100.00
62031;BME280;62035;52.094;5.112;2023-06-04T01:34:55;102331.75;;;13.23;100.00
62031;BME280;62035;52.094;5.112;2023-06-04T01:37:23;102324.66;;;13.33;100.00
62031;BME280;62035;52.094;5.112;2023-06-04T01:39:50;102328.41;;;13.10;100.00
62031;BME280;62035;52.094;5.112;2023-06-04T01:42:18;102329.16;;;13.01;100.00
62031;BME280;62035;52.094;5.112;2023-06-04T01:44:45;102316.28;;;13.27;100.00
62031;BME280;62035;52.094;5.112;2023-06-04T01:47:13;102322.44;;;13.18;100.00
62031;BME280;62035;52.094;5.112;2023-06-04T01:49:41;102325.59;;;13.12;100.00
62031;BME280;62035;52.094;5.112;2023-06-04T01:52:10;102315.34;;;12.96;100.00
62031;BME280;62035;52.094;5.112;2023-06-04T01:54:38;102324.38;;;12.84;100.00
62031;BME280;62035;52.094;5.112;2023-06-04T01:57:06;102324.84;;;12.89;100.00
62031;BME280;62035;52.094;5.112;2023-06-04T01:59:35;102330.03;;;12.69;100.00
62031;BME280;62035;52.094;5.112;2023-06-04T02:02:05;102325.47;;;12.81;100.00
62031;BME280;62035;52.094;5.112;2023-06-04T02:04:32;102327.50;;;12.68;100.00
62031;BME280;62035;52.094;5.112;2023-06-04T02:07:02;102335.28;;;12.92;100.00
62031;BME280;62035;52.094;5.112;2023-06-04T02:09:31;102326.00;;;12.75;100.00
62031;BME280;62035;52.094;5.112;2023-06-04T02:11:59;102326.06;;;12.85;100.00
62031;BME280;62035;52.094;5.112;2023-06-04T02:14:27;102326.44;;;12.80;100.00
62031;BME280;62035;52.094;5.112;2023-06-04T02:16:54;102329.81;;;12.61;100.00
62031;BME280;62035;52.094;5.112;2023-06-04T02:19:23;102330.09;;;12.47;100.00
62031;BME280;62035;52.094;5.112;2023-06-04T02:21:51;102325.78;;;12.67;100.00
62031;BME280;62035;52.094;5.112;2023-06-04T02:24:19;102327.66;;;12.55;100.00
62031;BME280;62035;52.094;5.112;2023-06-04T02:26:48;102325.94;;;12.54;100.00
62031;BME280;62035;52.094;5.112;2023-06-04T02:29:16;102315.88;;;12.58;100.00
62031;BME280;62035;52.094;5.112;2023-06-04T02:31:43;102315.69;;;12.39;100.00
62031;BME280;62035;52.094;5.112;2023-06-04T02:34:11;102326.19;;;12.51;100.00
62031;BME280;62035;52.094;5.112;2023-06-04T02:36:38;102326.53;;;12.58;100.00
62031;BME280;62035;52.094;5.112;2023-06-04T02:39:06;102312.44;;;12.35;100.00
62031;BME280;62035;52.094;5.112;2023-06-04T02:41:33;102321.34;;;12.45;100.00
62031;BME280;62035;52.094;5.112;2023-06-04T02:44:02;102318.50;;;12.37;100.00
62031;BME280;62035;52.094;5.112;2023-06-04T02:46:30;102326.88;;;12.32;100.00
62031;BME280;62035;52.094;5.112;2023-06-04T02:48:57;102331.34;;;12.32;100.00
62031;BME280;62035;52.094;5.112;2023-06-04T02:51:25;102332.09;;;12.34;100.00
62031;BME280;62035;52.094;5.112;2023-06-04T02:53:54;102332.22;;;12.21;100.00
62031;BME280;62035;52.094;5.112;2023-06-04T02:56:22;102329.19;;;12.26;100.00
62031;BME280;62035;52.094;5.112;2023-06-04T02:58:50;102335.47;;;12.36;100.00
62031;BME280;62035;52.094;5.112;2023-06-04T03:01:20;102329.66;;;12.20;100.00
62031;BME280;62035;52.094;5.112;2023-06-04T03:03:48;102327.75;;;11.99;100.00
62031;BME280;62035;52.094;5.112;2023-06-04T03:06:17;102325.31;;;12.19;100.00
62031;BME280;62035;52.094;5.112;2023-06-04T03:08:46;102323.25;;;12.11;100.00
62031;BME280;62035;52.094;5.112;2023-06-04T03:11:14;102326.03;;;12.10;100.00
62031;BME280;62035;52.094;5.112;2023-06-04T03:13:42;102294.41;;;11.83;100.00
62031;BME280;62035;52.094;5.112;2023-06-04T03:16:09;102317.78;;;12.13;100.00
62031;BME280;62035;52.094;5.112;2023-06-04T03:18:39;102320.22;;;12.16;100.00
62031;BME280;62035;52.094;5.112;2023-06-04T03:21:08;102328.69;;;12.21;100.00
62031;BME280;62035;52.094;5.112;2023-06-04T03:23:37;102321.19;;;12.15;100.00
62031;BME280;62035;52.094;5.112;2023-06-04T03:26:05;102312.22;;;12.05;100.00
62031;BME280;62035;52.094;5.112;2023-06-04T03:28:33;102328.09;;;12.06;100.00
62031;BME280;62035;52.094;5.112;2023-06-04T03:31:01;102322.88;;;12.05;100.00
62031;BME280;62035;52.094;5.112;2023-06-04T03:33:29;102324.94;;;12.12;100.00
62031;BME280;62035;52.094;5.112;2023-06-04T03:35:58;102323.59;;;12.07;100.00
62031;BME280;62035;52.094;5.112;2023-06-04T03:38:26;102325.09;;;11.99;100.00
62031;BME280;62035;52.094;5.112;2023-06-04T03:40:53;102327.72;;;12.11;100.00
62031;BME280;62035;52.094;5.112;2023-06-04T03:43:21;102326.28;;;12.18;100.00
62031;BME280;62035;52.094;5.112;2023-06-04T03:45:48;102326.28;;;12.07;100.00
62031;BME280;62035;52.094;5.112;2023-06-04T03:48:16;102332.34;;;12.09;100.00
62031;BME280;62035;52.094;5.112;2023-06-04T03:50:44;102323.00;;;12.14;100.00
62031;BME280;62035;52.094;5.112;2023-06-04T03:53:13;102318.75;;;12.12;100.00
62031;BME280;62035;52.094;5.112;2023-06-04T03:55:41;102331.38;;;12.10;100.00
62031;BME280;62035;52.094;5.112;2023-06-04T03:58:08;102323.47;;;12.19;100.00
62031;BME280;62035;52.094;5.112;2023-06-04T04:00:37;102318.25;;;12.18;100.00
62031;BME280;62035;52.094;5.112;2023-06-04T04:03:05;102326.03;;;12.10;100.00
62031;BME280;62035;52.094;5.112;2023-06-04T04:05:35;102326.53;;;12.03;100.00
62031;BME280;62035;52.094;5.112;2023-06-04T04:08:03;102335.00;;;12.20;100.00
62031;BME280;62035;52.094;5.112;2023-06-04T04:10:33;102326.75;;;12.12;100.00
62031;BME280;62035;52.094;5.112;2023-06-04T04:13:01;102328.81;;;12.08;100.00
62031;BME280;62035;52.094;5.112;2023-06-04T04:15:28;102330.53;;;12.20;100.00
62031;BME280;62035;52.094;5.112;2023-06-04T04:17:56;102325.91;;;12.22;100.00
62031;BME280;62035;52.094;5.112;2023-06-04T04:20:23;102325.28;;;12.30;100.00
62031;BME280;62035;52.094;5.112;2023-06-04T04:22:51;102331.72;;;12.16;100.00
62031;BME280;62035;52.094;5.112;2023-06-04T04:25:19;102327.97;;;12.08;100.00
62031;BME280;62035;52.094;5.112;2023-06-04T04:27:47;102331.72;;;12.27;100.00
62031;BME280;62035;52.094;5.112;2023-06-04T04:30:15;102332.16;;;12.44;100.00
62031;BME280;62035;52.094;5.112;2023-06-04T04:32:43;102335.06;;;12.41;100.00
62031;BME280;62035;52.094;5.112;2023-06-04T04:35:14;102331.97;;;12.35;100.00
62031;BME280;62035;52.094;5.112;2023-06-04T04:37:44;102326.03;;;12.64;100.00
62031;BME280;62035;52.094;5.112;2023-06-04T04:40:12;102328.31;;;12.37;100.00
62031;BME280;62035;52.094;5.112;2023-06-04T04:42:40;102333.47;;;12.49;100.00
62031;BME280;62035;52.094;5.112;2023-06-04T04:45:10;102334.19;;;12.62;100.00
62031;BME280;62035;52.094;5.112;2023-06-04T04:47:38;102311.22;;;12.71;100.00
62031;BME280;62035;52.094;5.112;2023-06-04T04:50:06;102332.59;;;12.71;100.00
62031;BME280;62035;52.094;5.112;2023-06-04T04:52:34;102333.25;;;12.84;100.00
62031;BME280;62035;52.094;5.112;2023-06-04T04:55:01;102329.19;;;12.69;100.00
62031;BME280;62035;52.094;5.112;2023-06-04T04:57:29;102333.91;;;12.77;100.00
62031;BME280;62035;52.094;5.112;2023-06-04T04:59:57;102331.13;;;12.67;100.00
62031;BME280;62035;52.094;5.112;2023-06-04T05:02:27;102328.63;;;12.86;100.00
62031;BME280;62035;52.094;5.112;2023-06-04T05:04:54;102325.75;;;13.31;100.00
62031;BME280;62035;52.094;5.112;2023-06-04T05:07:22;102326.38;;;14.35;100.00
62031;BME280;62035;52.094;5.112;2023-06-04T05:09:50;102328.22;;;15.31;100.00
62031;BME280;62035;52.094;5.112;2023-06-04T05:12:18;102329.97;;;16.07;100.00
62031;BME280;62035;52.094;5.112;2023-06-04T05:14:46;102325.34;;;16.26;100.00
62031;BME280;62035;52.094;5.112;2023-06-04T05:17:14;102324.41;;;16.81;100.00
62031;BME280;62035;52.094;5.112;2023-06-04T05:19:43;102321.03;;;17.14;100.00
62031;BME280;62035;52.094;5.112;2023-06-04T05:22:13;102323.00;;;17.82;100.00
62031;BME280;62035;52.094;5.112;2023-06-04T05:24:44;102324.63;;;18.09;100.00
62031;BME280;62035;52.094;5.112;2023-06-04T05:27:12;102319.56;;;17.97;100.00
62031;BME280;62035;52.094;5.112;2023-06-04T05:29:39;102316.31;;;18.36;100.00
62031;BME280;62035;52.094;5.112;2023-06-04T05:32:07;102319.44;;;18.74;100.00
62031;BME280;62035;52.094;5.112;2023-06-04T05:34:35;102327.22;;;19.01;100.00
62031;BME280;62035;52.094;5.112;2023-06-04T05:37:04;102321.47;;;19.04;100.00
62031;BME280;62035;52.094;5.112;2023-06-04T05:39:34;102327.19;;;19.33;100.00
62031;BME280;62035;52.094;5.112;2023-06-04T05:42:01;102331.78;;;19.17;100.00
62031;BME280;62035;52.094;5.112;2023-06-04T05:44:29;102324.16;;;19.53;100.00
62031;BME280;62035;52.094;5.112;2023-06-04T05:46:57;102330.91;;;19.32;100.00
62031;BME280;62035;52.094;5.112;2023-06-04T05:49:24;102330.59;;;19.11;100.00
62031;BME280;62035;52.094;5.112;2023-06-04T05:51:52;102322.47;;;19.52;100.00
62031;BME280;62035;52.094;5.112;2023-06-04T05:54:21;102329.03;;;19.33;100.00
62031;BME280;62035;52.094;5.112;2023-06-04T05:56:48;102335.47;;;19.08;100.00
62031;BME280;62035;52.094;5.112;2023-06-04T05:59:16;102336.31;;;19.24;100.00
62031;BME280;62035;52.094;5.112;2023-06-04T06:01:44;102338.50;;;19.29;100.00
62031;BME280;62035;52.094;5.112;2023-06-04T06:04:12;102328.75;;;19.12;100.00
62031;BME280;62035;52.094;5.112;2023-06-04T06:06:40;102333.25;;;19.36;100.00
62031;BME280;62035;52.094;5.112;2023-06-04T06:09:09;102336.13;;;18.85;100.00
62031;BME280;62035;52.094;5.112;2023-06-04T06:11:38;102329.38;;;19.38;100.00
62031;BME280;62035;52.094;5.112;2023-06-04T06:14:06;102328.88;;;20.06;100.00
62031;BME280;62035;52.094;5.112;2023-06-04T06:16:34;102324.63;;;20.12;100.00
62031;BME280;62035;52.094;5.112;2023-06-04T06:19:01;102322.47;;;19.36;100.00
62031;BME280;62035;52.094;5.112;2023-06-04T06:21:29;102338.84;;;18.93;100.00
62031;BME280;62035;52.094;5.112;2023-06-04T06:23:56;102337.84;;;19.19;100.00
62031;BME280;62035;52.094;5.112;2023-06-04T06:26:24;102341.88;;;18.90;100.00
62031;BME280;62035;52.094;5.112;2023-06-04T06:28:53;102328.38;;;18.74;100.00
62031;BME280;62035;52.094;5.112;2023-06-04T06:31:22;102327.13;;;19.82;100.00
62031;BME280;62035;52.094;5.112;2023-06-04T06:33:49;102331.72;;;20.13;100.00
62031;BME280;62035;52.094;5.112;2023-06-04T06:36:17;102328.72;;;20.70;100.00
62031;BME280;62035;52.094;5.112;2023-06-04T06:38:45;102335.69;;;20.87;100.00
62031;BME280;62035;52.094;5.112;2023-06-04T06:41:13;102343.50;;;20.82;100.00
62031;BME280;62035;52.094;5.112;2023-06-04T06:43:41;102341.97;;;19.86;100.00
62031;BME280;62035;52.094;5.112;2023-06-04T06:46:10;102342.31;;;19.75;100.00
62031;BME280;62035;52.094;5.112;2023-06-04T06:48:37;102337.78;;;19.68;100.00
62031;BME280;62035;52.094;5.112;2023-06-04T06:51:05;102339.66;;;19.43;100.00
62031;BME280;62035;52.094;5.112;2023-06-04T06:53:32;102337.66;;;19.28;100.00
62031;BME280;62035;52.094;5.112;2023-06-04T06:56:00;102342.38;;;19.35;100.00
62031;BME280;62035;52.094;5.112;2023-06-04T06:58:27;102340.28;;;19.85;100.00
62031;BME280;62035;52.094;5.112;2023-06-04T07:00:55;102347.09;;;19.32;100.00
62031;BME280;62035;52.094;5.112;2023-06-04T07:03:24;102340.81;;;19.64;100.00
62031;BME280;62035;52.094;5.112;2023-06-04T07:05:52;102348.13;;;18.99;100.00
62031;BME280;62035;52.094;5.112;2023-06-04T07:08:20;102344.03;;;18.62;100.00
62031;BME280;62035;52.094;5.112;2023-06-04T07:10:48;102349.09;;;18.65;100.00
62031;BME280;62035;52.094;5.112;2023-06-04T07:13:15;102353.84;;;18.96;100.00
62031;BME280;62035;52.094;5.112;2023-06-04T07:15:43;102355.19;;;18.84;100.00
62031;BME280;62035;52.094;5.112;2023-06-04T07:18:11;102358.53;;;18.70;100.00
62031;BME280;62035;52.094;5.112;2023-06-04T07:20:39;102350.28;;;18.71;100.00
62031;BME280;62035;52.094;5.112;2023-06-04T07:23:07;102358.06;;;18.74;100.00
62031;BME280;62035;52.094;5.112;2023-06-04T07:25:35;102367.22;;;18.55;100.00
62031;BME280;62035;52.094;5.112;2023-06-04T07:28:02;102354.00;;;18.70;100.00
62031;BME280;62035;52.094;5.112;2023-06-04T07:30:31;102363.28;;;18.92;100.00
62031;BME280;62035;52.094;5.112;2023-06-04T07:32:58;102365.66;;;19.03;100.00
62031;BME280;62035;52.094;5.112;2023-06-04T07:35:26;102335.81;;;18.72;100.00
62031;BME280;62035;52.094;5.112;2023-06-04T07:37:55;102344.41;;;19.08;100.00
62031;BME280;62035;52.094;5.112;2023-06-04T07:40:23;102367.19;;;19.14;100.00
62031;BME280;62035;52.094;5.112;2023-06-04T07:42:50;102365.13;;;18.75;100.00
62031;BME280;62035;52.094;5.112;2023-06-04T07:45:18;102358.59;;;19.02;100.00
62031;BME280;62035;52.094;5.112;2023-06-04T07:47:46;102359.44;;;19.19;100.00
62031;BME280;62035;52.094;5.112;2023-06-04T07:50:13;102359.75;;;19.40;100.00
62031;BME280;62035;52.094;5.112;2023-06-04T07:52:41;102359.25;;;19.45;100.00
62031;BME280;62035;52.094;5.112;2023-06-04T07:55:10;102350.16;;;19.54;100.00
62031;BME280;62035;52.094;5.112;2023-06-04T07:57:38;102349.13;;;19.55;100.00
62031;BME280;62035;52.094;5.112;2023-06-04T08:00:07;102358.56;;;19.26;100.00
62031;BME280;62035;52.094;5.112;2023-06-04T08:02:35;102359.91;;;19.30;100.00
62031;BME280;62035;52.094;5.112;2023-06-04T08:05:03;102358.91;;;19.48;100.00
62031;BME280;62035;52.094;5.112;2023-06-04T08:07:31;102361.44;;;19.41;100.00
62031;BME280;62035;52.094;5.112;2023-06-04T08:09:58;102363.28;;;19.49;100.00
62031;BME280;62035;52.094;5.112;2023-06-04T08:12:27;102360.59;;;19.49;100.00
62031;BME280;62035;52.094;5.112;2023-06-04T08:14:55;102373.44;;;19.55;100.00
62031;BME280;62035;52.094;5.112;2023-06-04T08:17:23;102370.19;;;19.68;100.00
62031;BME280;62035;52.094;5.112;2023-06-04T08:19:51;102363.94;;;19.75;100.00
62031;BME280;62035;52.094;5.112;2023-06-04T08:22:18;102359.19;;;19.85;100.00
62031;BME280;62035;52.094;5.112;2023-06-04T08:24:46;102357.81;;;19.89;100.00
62031;BME280;62035;52.094;5.112;2023-06-04T08:27:14;102360.56;;;20.20;100.00
62031;BME280;62035;52.094;5.112;2023-06-04T08:29:45;102360.16;;;20.40;100.00
62031;BME280;62035;52.094;5.112;2023-06-04T08:32:12;102371.13;;;20.46;100.00
62031;BME280;62035;52.094;5.112;2023-06-04T08:34:40;102362.88;;;20.40;100.00
62031;BME280;62035;52.094;5.112;2023-06-04T08:37:07;102363.94;;;20.22;100.00
62031;BME280;62035;52.094;5.112;2023-06-04T08:39:35;102363.13;;;20.14;100.00
62031;BME280;62035;52.094;5.112;2023-06-04T08:42:05;102348.22;;;20.26;100.00
62031;BME280;62035;52.094;5.112;2023-06-04T08:44:34;102359.94;;;20.49;100.00
62031;BME280;62035;52.094;5.112;2023-06-04T08:47:05;102360.22;;;20.62;100.00
62031;BME280;62035;52.094;5.112;2023-06-04T08:49:34;102360.16;;;20.40;100.00
62031;BME280;62035;52.094;5.112;2023-06-04T08:52:03;102334.00;;;20.63;100.00
62031;BME280;62035;52.094;5.112;2023-06-04T08:54:33;102365.28;;;20.88;100.00
62031;BME280;62035;52.094;5.112;2023-06-04T08:57:01;102363.41;;;20.89;98.38
62031;BME280;62035;52.094;5.112;2023-06-04T08:59:28;102364.44;;;20.88;97.94
62031;BME280;62035;52.094;5.112;2023-06-04T09:01:56;102367.88;;;21.05;97.96
62031;BME280;62035;52.094;5.112;2023-06-04T09:04:27;102364.44;;;21.11;97.46
62031;BME280;62035;52.094;5.112;2023-06-04T09:07:01;102372.88;;;21.16;92.99
62031;BME280;62035;52.094;5.112;2023-06-04T09:09:31;102368.13;;;21.18;91.91
62031;BME280;62035;52.094;5.112;2023-06-04T09:12:06;102359.16;;;21.17;91.33
62031;BME280;62035;52.094;5.112;2023-06-04T09:14:36;102354.75;;;21.39;91.96
62031;BME280;62035;52.094;5.112;2023-06-04T09:17:04;102359.75;;;21.27;91.87
62031;BME280;62035;52.094;5.112;2023-06-04T09:19:33;102371.41;;;21.28;91.52
62031;BME280;62035;52.094;5.112;2023-06-04T09:22:01;102366.28;;;21.33;88.47
62031;BME280;62035;52.094;5.112;2023-06-04T09:24:39;102373.34;;;21.42;89.46
62031;BME280;62035;52.094;5.112;2023-06-04T09:27:10;102358.91;;;21.27;91.39
62031;BME280;62035;52.094;5.112;2023-06-04T09:29:40;102358.31;;;21.54;89.77
62031;BME280;62035;52.094;5.112;2023-06-04T09:32:07;102363.09;;;21.82;86.79
62031;BME280;62035;52.094;5.112;2023-06-04T09:34:36;102365.97;;;21.66;84.95
62031;BME280;62035;52.094;5.112;2023-06-04T09:37:14;102367.50;;;21.98;83.69
62031;BME280;62035;52.094;5.112;2023-06-04T09:39:43;102371.88;;;21.84;82.00
62031;BME280;62035;52.094;5.112;2023-06-04T09:42:12;102360.50;;;22.03;78.97
62031;BME280;62035;52.094;5.112;2023-06-04T09:44:45;102363.66;;;21.92;79.72
62031;BME280;62035;52.094;5.112;2023-06-04T09:47:12;102365.38;;;22.08;75.61
62031;BME280;62035;52.094;5.112;2023-06-04T09:49:43;102366.66;;;22.12;78.72
62031;BME280;62035;52.094;5.112;2023-06-04T09:52:11;102362.00;;;22.20;78.82
62031;BME280;62035;52.094;5.112;2023-06-04T09:54:40;102371.72;;;22.15;77.10
62031;BME280;62035;52.094;5.112;2023-06-04T09:57:14;102366.09;;;22.31;75.71
62031;BME280;62035;52.094;5.112;2023-06-04T09:59:44;102358.25;;;22.21;76.52
62031;BME280;62035;52.094;5.112;2023-06-04T10:02:13;102373.31;;;22.60;75.48
62031;BME280;62035;52.094;5.112;2023-06-04T10:04:49;102362.00;;;22.56;74.29
62031;BME280;62035;52.094;5.112;2023-06-04T10:07:20;102367.75;;;22.83;70.92
62031;BME280;62035;52.094;5.112;2023-06-04T10:09:50;102369.28;;;22.71;70.13
62031;BME280;62035;52.094;5.112;2023-06-04T10:12:24;102365.78;;;22.41;69.99
62031;BME280;62035;52.094;5.112;2023-06-04T10:14:58;102358.63;;;22.54;70.07
62031;BME280;62035;52.094;5.112;2023-06-04T10:17:29;102365.16;;;22.39;71.85
62031;BME280;62035;52.094;5.112;2023-06-04T10:20:01;102365.06;;;22.68;70.82
62031;BME280;62035;52.094;5.112;2023-06-04T10:22:32;102366.38;;;22.72;71.38
62031;BME280;62035;52.094;5.112;2023-06-04T10:25:00;102363.75;;;22.79;67.80
62031;BME280;62035;52.094;5.112;2023-06-04T10:27:30;102363.47;;;22.95;68.34
62031;BME280;62035;52.094;5.112;2023-06-04T10:30:01;102369.69;;;23.10;64.68
62031;BME280;62035;52.094;5.112;2023-06-04T10:32:29;102368.13;;;23.22;64.42
62031;BME280;62035;52.094;5.112;2023-06-04T10:34:57;102366.03;;;23.24;65.08
62031;BME280;62035;52.094;5.112;2023-06-04T10:37:26;102357.13;;;22.67;64.74
62031;BME280;62035;52.094;5.112;2023-06-04T10:39:56;102362.31;;;22.83;65.79
62031;BME280;62035;52.094;5.112;2023-06-04T10:42:25;102367.91;;;23.24;63.22
62031;BME280;62035;52.094;5.112;2023-06-04T10:45:05;102356.97;;;23.39;61.76
62031;BME280;62035;52.094;5.112;2023-06-04T10:47:36;102359.09;;;23.43;61.28
62031;BME280;62035;52.094;5.112;2023-06-04T10:50:08;102351.75;;;23.65;61.73
62031;BME280;62035;52.094;5.112;2023-06-04T10:52:50;102345.53;;;23.43;61.17
62031;BME280;62035;52.094;5.112;2023-06-04T10:55:18;102359.56;;;23.75;61.44
62031;BME280;62035;52.094;5.112;2023-06-04T10:57:51;102353.81;;;23.63;60.13
62031;BME280;62035;52.094;5.112;2023-06-04T11:00:20;102364.44;;;23.86;60.27
62031;BME280;62035;52.094;5.112;2023-06-04T11:02:52;102366.03;;;23.74;60.19
62031;BME280;62035;52.094;5.112;2023-06-04T11:05:21;102354.88;;;23.97;60.55
62031;BME280;62035;52.094;5.112;2023-06-04T11:07:51;102362.63;;;24.34;58.33
62031;BME280;62035;52.094;5.112;2023-06-04T11:10:31;102353.72;;;24.19;59.25
62031;BME280;62035;52.094;5.112;2023-06-04T11:13:00;102354.06;;;24.37;59.70
62031;BME280;62035;52.094;5.112;2023-06-04T11:15:37;102355.56;;;24.53;53.10
62031;BME280;62035;52.094;5.112;2023-06-04T11:18:06;102347.66;;;24.78;52.91
62031;BME280;62035;52.094;5.112;2023-06-04T11:20:33;102353.53;;;24.75;52.30
62031;BME280;62035;52.094;5.112;2023-06-04T11:23:03;102351.72;;;24.41;52.08
62031;BME280;62035;52.094;5.112;2023-06-04T11:25:31;102343.38;;;24.42;53.23
62031;BME280;62035;52.094;5.112;2023-06-04T11:28:00;102341.56;;;24.63;54.01
62031;BME280;62035;52.094;5.112;2023-06-04T11:30:28;102345.22;;;25.16;54.52
62031;BME280;62035;52.094;5.112;2023-06-04T11:33:03;102339.56;;;25.17;54.84
62031;BME280;62035;52.094;5.112;2023-06-04T11:35:40;102333.41;;;24.89;53.12
62031;BME280;62035;52.094;5.112;2023-06-04T11:38:10;102343.75;;;25.07;50.45
62031;BME280;62035;52.094;5.112;2023-06-04T11:40:37;102336.56;;;25.72;48.72
62031;BME280;62035;52.094;5.112;2023-06-04T11:43:05;102338.41;;;25.98;48.50
62031;BME280;62035;52.094;5.112;2023-06-04T11:45:36;102337.16;;;25.94;47.86
62031;BME280;62035;52.094;5.112;2023-06-04T11:48:05;102327.53;;;25.84;46.64
62031;BME280;62035;52.094;5.112;2023-06-04T11:50:33;102323.94;;;25.90;46.81
62031;BME280;62035;52.094;5.112;2023-06-04T11:53:00;102325.63;;;25.91;47.46
62031;BME280;62035;52.094;5.112;2023-06-04T11:55:31;102317.66;;;25.90;48.54
62031;BME280;62035;52.094;5.112;2023-06-04T11:57:59;102319.84;;;26.13;48.59
62031;BME280;62035;52.094;5.112;2023-06-04T12:00:27;102312.75;;;26.05;48.80
62031;BME280;62035;52.094;5.112;2023-06-04T12:02:56;102304.72;;;26.86;47.68
62031;BME280;62035;52.094;5.112;2023-06-04T12:05:29;102309.78;;;26.83;46.06
62031;BME280;62035;52.094;5.112;2023-06-04T12:08:04;102313.38;;;27.15;44.69
62031;BME280;62035;52.094;5.112;2023-06-04T12:10:38;102317.69;;;27.22;44.39
62031;BME280;62035;52.094;5.112;2023-06-04T12:13:07;102308.72;;;27.40;43.62
62031;BME280;62035;52.094;5.112;2023-06-04T12:15:34;102309.59;;;27.16;44.50
62031;BME280;62035;52.094;5.112;2023-06-04T12:18:02;102312.28;;;26.60;45.81
62031;BME280;62035;52.094;5.112;2023-06-04T12:20:35;102308.47;;;27.42;45.39
62031;BME280;62035;52.094;5.112;2023-06-04T12:23:04;102306.47;;;27.55;44.91
62031;BME280;62035;52.094;5.112;2023-06-04T12:25:34;102305.13;;;27.83;43.86
62031;BME280;62035;52.094;5.112;2023-06-04T12:28:04;102302.28;;;27.71;48.31
62031;BME280;62035;52.094;5.112;2023-06-04T12:30:35;102307.16;;;28.24;47.34
62031;BME280;62035;52.094;5.112;2023-06-04T12:33:03;102306.97;;;27.46;50.36
62031;BME280;62035;52.094;5.112;2023-06-04T12:35:33;102305.66;;;27.73;50.76
62031;BME280;62035;52.094;5.112;2023-06-04T12:38:03;102306.47;;;27.74;53.92
62031;BME280;62035;52.094;5.112;2023-06-04T12:40:31;102296.66;;;27.66;56.74
62031;BME280;62035;52.094;5.112;2023-06-04T12:42:58;102305.69;;;28.03;57.81
62031;BME280;62035;52.094;5.112;2023-06-04T12:45:28;102309.84;;;27.08;61.17
62031;BME280;62035;52.094;5.112;2023-06-04T12:47:55;102307.22;;;26.63;64.26
62031;BME280;62035;52.094;5.112;2023-06-04T12:50:23;102297.59;;;27.35;62.52
62031;BME280;62035;52.094;5.112;2023-06-04T12:52:51;102307.41;;;27.43;57.10